sensor_id;sensor_type;location;lat;lon;timestamp;P1;durP1;ratioP1;P2;durP2;ratioP2
24650;SDS011;12783;48.824;8.662;2023-01-20T00:01:25;7.97;;;3.90;;
24650;SDS011;12783;48.824;8.662;2023-01-20T00:03:53;9.23;;;4.40;;
24650;SDS011;12783;48.824;8.662;2023-01-20T00:06:21;9.10;;;4.53;;
24650;SDS011;12783;48.824;8.662;2023-01-20T00:08:49;9.40;;;4.10;;
24650;SDS011;12783;48.824;8.662;2023-01-20T00:11:19;11.73;;;3.92;;
24650;SDS011;12783;48.824;8.662;2023-01-20T00:13:46;8.80;;;3.28;;
24650;SDS011;12783;48.824;8.662;2023-01-20T00:16:13;8.77;;;4.10;;
24650;SDS011;12783;48.824;8.662;2023-01-20T00:18:55;7.72;;;4.45;;
24650;SDS011;12783;48.824;8.662;2023-01-20T00:21:22;7.65;;;4.00;;
24650;SDS011;12783;48.824;8.662;2023-01-20T00:23:49;9.60;;;4.28;;
24650;SDS011;12783;48.824;8.662;2023-01-20T00:26:17;7.55;;;3.97;;
24650;SDS011;12783;48.824;8.662;2023-01-20T00:28:45;9.40;;;3.80;;
24650;SDS011;12783;48.824;8.662;2023-01-20T00:31:13;7.97;;;4.32;;
24650;SDS011;12783;48.824;8.662;2023-01-20T00:33:45;7.97;;;4.03;;
24650;SDS011;12783;48.824;8.662;2023-01-20T00:36:13;7.00;;;4.03;;
24650;SDS011;12783;48.824;8.662;2023-01-20T00:38:40;13.05;;;4.63;;
24650;SDS011;12783;48.824;8.662;2023-01-20T00:41:07;7.05;;;4.25;;
24650;SDS011;12783;48.824;8.662;2023-01-20T00:43:34;6.82;;;4.05;;
24650;SDS011;12783;48.824;8.662;2023-01-20T00:46:01;8.23;;;4.13;;
24650;SDS011;12783;48.824;8.662;2023-01-20T00:48:29;7.20;;;4.30;;
24650;SDS011;12783;48.824;8.662;2023-01-20T00:50:56;8.05;;;4.40;;
24650;SDS011;12783;48.824;8.662;2023-01-20T00:53:23;8.45;;;4.40;;
24650;SDS011;12783;48.824;8.662;2023-01-20T00:55:50;8.93;;;5.13;;
24650;SDS011;12783;48.824;8.662;2023-01-20T00:58:17;9.02;;;4.72;;
24650;SDS011;12783;48.824;8.662;2023-01-20T01:00:47;8.57;;;4.50;;
24650;SDS011;12783;48.824;8.662;2023-01-20T01:03:15;8.52;;;4.85;;
24650;SDS011;12783;48.824;8.662;2023-01-20T01:05:42;11.10;;;4.43;;
24650;SDS011;12783;48.824;8.662;2023-01-20T01:08:10;11.40;;;4.80;;
24650;SDS011;12783;48.824;8.662;2023-01-20T01:10:37;10.20;;;4.35;;
24650;SDS011;12783;48.824;8.662;2023-01-20T01:13:04;8.00;;;4.57;;
24650;SDS011;12783;48.824;8.662;2023-01-20T01:15:31;9.35;;;4.72;;
24650;SDS011;12783;48.824;8.662;2023-01-20T01:17:58;9.98;;;3.78;;
24650;SDS011;12783;48.824;8.662;2023-01-20T01:20:26;6.53;;;3.67;;
24650;SDS011;12783;48.824;8.662;2023-01-20T01:22:54;8.02;;;4.22;;
24650;SDS011;12783;48.824;8.662;2023-01-20T01:25:20;5.20;;;3.25;;
24650;SDS011;12783;48.824;8.662;2023-01-20T01:27:47;6.10;;;3.55;;
24650;SDS011;12783;48.824;8.662;2023-01-20T01:30:14;5.85;;;3.63;;
24650;SDS011;12783;48.824;8.662;2023-01-20T01:32:40;8.15;;;3.40;;
24650;SDS011;12783;48.824;8.662;2023-01-20T01:35:07;4.15;;;3.10;;
24650;SDS011;12783;48.824;8.662;2023-01-20T01:37:34;8.38;;;3.88;;
24650;SDS011;12783;48.824;8.662;2023-01-20T01:40:01;8.23;;;3.47;;
24650;SDS011;12783;48.824;8.662;2023-01-20T01:42:27;7.60;;;3.65;;
24650;SDS011;12783;48.824;8.662;2023-01-20T01:47:38;5.95;;;3.22;;
24650;SDS011;12783;48.824;8.662;2023-01-20T01:50:29;5.05;;;2.80;;
24650;SDS011;12783;48.824;8.662;2023-01-20T01:53:01;5.50;;;3.45;;
24650;SDS011;12783;48.824;8.662;2023-01-20T01:55:29;5.32;;;2.97;;
24650;SDS011;12783;48.824;8.662;2023-01-20T01:58:00;5.25;;;2.95;;
24650;SDS011;12783;48.824;8.662;2023-01-20T02:00:28;4.55;;;2.75;;
24650;SDS011;12783;48.824;8.662;2023-01-20T02:02:55;8.15;;;3.15;;
24650;SDS011;12783;48.824;8.662;2023-01-20T02:05:22;7.75;;;2.90;;
24650;SDS011;12783;48.824;8.662;2023-01-20T02:07:50;6.85;;;3.20;;
24650;SDS011;12783;48.824;8.662;2023-01-20T02:10:17;9.32;;;2.92;;
24650;SDS011;12783;48.824;8.662;2023-01-20T02:12:45;3.88;;;2.55;;
24650;SDS011;12783;48.824;8.662;2023-01-20T02:15:15;7.20;;;2.60;;
24650;SDS011;12783;48.824;8.662;2023-01-20T02:17:47;6.18;;;2.83;;
24650;SDS011;12783;48.824;8.662;2023-01-20T02:22:57;8.15;;;3.28;;
24650;SDS011;12783;48.824;8.662;2023-01-20T02:37:25;6.72;;;3.10;;
24650;SDS011;12783;48.824;8.662;2023-01-20T02:42:29;8.45;;;3.13;;
24650;SDS011;12783;48.824;8.662;2023-01-20T02:45:09;9.52;;;3.33;;
24650;SDS011;12783;48.824;8.662;2023-01-20T02:47:53;6.10;;;2.88;;
24650;SDS011;12783;48.824;8.662;2023-01-20T02:50:24;5.13;;;2.65;;
24650;SDS011;12783;48.824;8.662;2023-01-20T02:52:57;6.47;;;2.80;;
24650;SDS011;12783;48.824;8.662;2023-01-20T02:55:27;8.68;;;3.13;;
24650;SDS011;12783;48.824;8.662;2023-01-20T02:58:00;7.88;;;3.08;;
24650;SDS011;12783;48.824;8.662;2023-01-20T03:00:30;6.65;;;3.25;;
24650;SDS011;12783;48.824;8.662;2023-01-20T03:03:01;7.35;;;3.50;;
24650;SDS011;12783;48.824;8.662;2023-01-20T03:05:33;5.28;;;2.88;;
24650;SDS011;12783;48.824;8.662;2023-01-20T03:08:01;11.68;;;3.38;;
24650;SDS011;12783;48.824;8.662;2023-01-20T03:10:31;4.72;;;2.80;;
24650;SDS011;12783;48.824;8.662;2023-01-20T03:13:05;6.03;;;3.20;;
24650;SDS011;12783;48.824;8.662;2023-01-20T03:15:48;7.85;;;3.22;;
24650;SDS011;12783;48.824;8.662;2023-01-20T03:18:46;5.40;;;3.17;;
24650;SDS011;12783;48.824;8.662;2023-01-20T03:21:13;7.57;;;3.75;;
24650;SDS011;12783;48.824;8.662;2023-01-20T03:23:41;8.57;;;4.40;;
24650;SDS011;12783;48.824;8.662;2023-01-20T03:26:10;40.85;;;18.75;;
24650;SDS011;12783;48.824;8.662;2023-01-20T03:28:39;75.20;;;35.35;;
24650;SDS011;12783;48.824;8.662;2023-01-20T03:31:14;52.80;;;24.20;;
24650;SDS011;12783;48.824;8.662;2023-01-20T03:33:49;33.38;;;15.40;;
24650;SDS011;12783;48.824;8.662;2023-01-20T03:36:18;31.00;;;14.93;;
24650;SDS011;12783;48.824;8.662;2023-01-20T03:38:47;13.90;;;6.93;;
24650;SDS011;12783;48.824;8.662;2023-01-20T03:44:08;12.52;;;5.63;;
24650;SDS011;12783;48.824;8.662;2023-01-20T03:46:57;7.28;;;3.55;;
24650;SDS011;12783;48.824;8.662;2023-01-20T03:52:41;5.90;;;3.53;;
24650;SDS011;12783;48.824;8.662;2023-01-20T03:55:33;11.63;;;3.47;;
24650;SDS011;12783;48.824;8.662;2023-01-20T03:58:04;6.53;;;3.85;;
24650;SDS011;12783;48.824;8.662;2023-01-20T04:00:34;6.43;;;3.75;;
24650;SDS011;12783;48.824;8.662;2023-01-20T04:03:04;5.63;;;3.47;;
24650;SDS011;12783;48.824;8.662;2023-01-20T04:05:33;6.60;;;4.13;;
24650;SDS011;12783;48.824;8.662;2023-01-20T04:08:01;7.15;;;4.20;;
24650;SDS011;12783;48.824;8.662;2023-01-20T04:10:30;8.45;;;3.90;;
24650;SDS011;12783;48.824;8.662;2023-01-20T04:12:58;9.43;;;3.80;;
24650;SDS011;12783;48.824;8.662;2023-01-20T04:15:24;7.13;;;4.13;;
24650;SDS011;12783;48.824;8.662;2023-01-20T04:17:55;9.93;;;4.68;;
24650;SDS011;12783;48.824;8.662;2023-01-20T04:20:22;7.72;;;4.47;;
24650;SDS011;12783;48.824;8.662;2023-01-20T04:22:50;7.15;;;4.15;;
24650;SDS011;12783;48.824;8.662;2023-01-20T04:25:21;7.20;;;3.95;;
24650;SDS011;12783;48.824;8.662;2023-01-20T04:27:55;10.10;;;4.28;;
24650;SDS011;12783;48.824;8.662;2023-01-20T04:30:22;8.10;;;4.30;;
24650;SDS011;12783;48.824;8.662;2023-01-20T04:32:49;8.55;;;4.20;;
24650;SDS011;12783;48.824;8.662;2023-01-20T04:35:17;9.80;;;4.35;;
24650;SDS011;12783;48.824;8.662;2023-01-20T04:37:44;9.15;;;4.50;;
24650;SDS011;12783;48.824;8.662;2023-01-20T04:40:11;10.75;;;5.18;;
24650;SDS011;12783;48.824;8.662;2023-01-20T04:42:38;9.90;;;4.40;;
24650;SDS011;12783;48.824;8.662;2023-01-20T04:45:05;8.45;;;4.50;;
24650;SDS011;12783;48.824;8.662;2023-01-20T04:47:32;10.80;;;4.47;;
24650;SDS011;12783;48.824;8.662;2023-01-20T04:49:59;11.55;;;4.10;;
24650;SDS011;12783;48.824;8.662;2023-01-20T04:52:25;9.40;;;4.80;;
24650;SDS011;12783;48.824;8.662;2023-01-20T04:54:52;7.95;;;4.93;;
24650;SDS011;12783;48.824;8.662;2023-01-20T04:57:19;10.73;;;5.10;;
24650;SDS011;12783;48.824;8.662;2023-01-20T04:59:45;14.50;;;5.60;;
24650;SDS011;12783;48.824;8.662;2023-01-20T05:02:12;9.98;;;4.75;;
24650;SDS011;12783;48.824;8.662;2023-01-20T05:04:39;8.65;;;4.75;;
24650;SDS011;12783;48.824;8.662;2023-01-20T05:07:05;9.05;;;4.50;;
24650;SDS011;12783;48.824;8.662;2023-01-20T05:09:32;12.77;;;4.30;;
24650;SDS011;12783;48.824;8.662;2023-01-20T05:11:59;8.68;;;4.15;;
24650;SDS011;12783;48.824;8.662;2023-01-20T05:14:26;10.23;;;4.57;;
24650;SDS011;12783;48.824;8.662;2023-01-20T05:16:52;12.20;;;4.10;;
24650;SDS011;12783;48.824;8.662;2023-01-20T05:19:19;7.90;;;4.28;;
24650;SDS011;12783;48.824;8.662;2023-01-20T05:21:46;8.68;;;4.20;;
24650;SDS011;12783;48.824;8.662;2023-01-20T05:24:12;8.40;;;4.38;;
24650;SDS011;12783;48.824;8.662;2023-01-20T05:26:39;7.88;;;4.32;;
24650;SDS011;12783;48.824;8.662;2023-01-20T05:29:05;10.30;;;4.10;;
24650;SDS011;12783;48.824;8.662;2023-01-20T05:31:32;10.70;;;4.20;;
24650;SDS011;12783;48.824;8.662;2023-01-20T05:33:59;9.65;;;4.80;;
24650;SDS011;12783;48.824;8.662;2023-01-20T05:36:26;10.25;;;4.53;;
24650;SDS011;12783;48.824;8.662;2023-01-20T05:38:53;9.07;;;4.28;;
24650;SDS011;12783;48.824;8.662;2023-01-20T05:41:20;8.70;;;4.40;;
24650;SDS011;12783;48.824;8.662;2023-01-20T05:43:47;9.65;;;4.70;;
24650;SDS011;12783;48.824;8.662;2023-01-20T05:46:13;6.68;;;3.88;;
24650;SDS011;12783;48.824;8.662;2023-01-20T05:48:40;7.55;;;4.13;;
24650;SDS011;12783;48.824;8.662;2023-01-20T05:51:07;7.38;;;4.20;;
24650;SDS011;12783;48.824;8.662;2023-01-20T05:53:34;10.70;;;4.45;;
24650;SDS011;12783;48.824;8.662;2023-01-20T05:56:01;9.30;;;4.88;;
24650;SDS011;12783;48.824;8.662;2023-01-20T05:58:29;8.70;;;4.72;;
24650;SDS011;12783;48.824;8.662;2023-01-20T06:01:10;9.75;;;4.75;;
24650;SDS011;12783;48.824;8.662;2023-01-20T06:03:38;8.80;;;4.20;;
24650;SDS011;12783;48.824;8.662;2023-01-20T06:06:06;9.23;;;4.47;;
24650;SDS011;12783;48.824;8.662;2023-01-20T06:08:34;8.55;;;4.70;;
24650;SDS011;12783;48.824;8.662;2023-01-20T06:11:01;10.15;;;5.35;;
24650;SDS011;12783;48.824;8.662;2023-01-20T06:13:27;11.63;;;5.50;;
24650;SDS011;12783;48.824;8.662;2023-01-20T06:15:54;9.55;;;4.55;;
24650;SDS011;12783;48.824;8.662;2023-01-20T06:18:21;8.60;;;4.35;;
24650;SDS011;12783;48.824;8.662;2023-01-20T06:20:48;7.65;;;4.05;;
24650;SDS011;12783;48.824;8.662;2023-01-20T06:23:15;9.35;;;4.72;;
24650;SDS011;12783;48.824;8.662;2023-01-20T06:25:42;9.20;;;4.68;;
24650;SDS011;12783;48.824;8.662;2023-01-20T06:28:09;9.88;;;5.28;;
24650;SDS011;12783;48.824;8.662;2023-01-20T06:30:36;12.07;;;5.45;;
24650;SDS011;12783;48.824;8.662;2023-01-20T06:33:03;9.40;;;5.10;;
24650;SDS011;12783;48.824;8.662;2023-01-20T06:35:35;9.85;;;4.97;;
24650;SDS011;12783;48.824;8.662;2023-01-20T06:38:03;9.20;;;5.15;;
24650;SDS011;12783;48.824;8.662;2023-01-20T06:40:30;9.57;;;4.75;;
24650;SDS011;12783;48.824;8.662;2023-01-20T06:42:57;9.70;;;4.90;;
24650;SDS011;12783;48.824;8.662;2023-01-20T06:45:24;11.20;;;5.80;;
24650;SDS011;12783;48.824;8.662;2023-01-20T06:47:50;7.68;;;4.93;;
24650;SDS011;12783;48.824;8.662;2023-01-20T06:50:17;9.25;;;4.65;;
24650;SDS011;12783;48.824;8.662;2023-01-20T06:52:44;8.63;;;4.60;;
24650;SDS011;12783;48.824;8.662;2023-01-20T06:55:10;8.25;;;4.50;;
24650;SDS011;12783;48.824;8.662;2023-01-20T06:57:38;9.80;;;4.85;;
24650;SDS011;12783;48.824;8.662;2023-01-20T07:00:05;6.88;;;4.43;;
24650;SDS011;12783;48.824;8.662;2023-01-20T07:02:32;7.38;;;4.40;;
24650;SDS011;12783;48.824;8.662;2023-01-20T07:04:59;10.02;;;4.22;;
24650;SDS011;12783;48.824;8.662;2023-01-20T07:07:25;7.88;;;4.22;;
24650;SDS011;12783;48.824;8.662;2023-01-20T07:09:53;8.38;;;4.38;;
24650;SDS011;12783;48.824;8.662;2023-01-20T07:12:20;8.10;;;4.50;;
24650;SDS011;12783;48.824;8.662;2023-01-20T07:14:46;7.97;;;4.70;;
24650;SDS011;12783;48.824;8.662;2023-01-20T07:17:13;7.68;;;5.13;;
24650;SDS011;12783;48.824;8.662;2023-01-20T07:19:40;10.13;;;4.78;;
24650;SDS011;12783;48.824;8.662;2023-01-20T07:22:06;10.05;;;4.82;;
24650;SDS011;12783;48.824;8.662;2023-01-20T07:24:33;15.30;;;5.68;;
24650;SDS011;12783;48.824;8.662;2023-01-20T07:27:00;15.45;;;5.28;;
24650;SDS011;12783;48.824;8.662;2023-01-20T07:29:27;9.75;;;5.40;;
24650;SDS011;12783;48.824;8.662;2023-01-20T07:31:54;13.20;;;5.18;;
24650;SDS011;12783;48.824;8.662;2023-01-20T07:34:21;15.73;;;7.07;;
24650;SDS011;12783;48.824;8.662;2023-01-20T07:36:49;16.40;;;7.25;;
24650;SDS011;12783;48.824;8.662;2023-01-20T07:39:17;10.07;;;5.63;;
24650;SDS011;12783;48.824;8.662;2023-01-20T07:41:45;11.90;;;4.85;;
24650;SDS011;12783;48.824;8.662;2023-01-20T07:44:15;17.13;;;8.50;;
24650;SDS011;12783;48.824;8.662;2023-01-20T07:46:42;18.50;;;10.60;;
24650;SDS011;12783;48.824;8.662;2023-01-20T07:49:09;18.88;;;9.20;;
24650;SDS011;12783;48.824;8.662;2023-01-20T07:51:37;18.00;;;9.50;;
24650;SDS011;12783;48.824;8.662;2023-01-20T07:54:05;16.40;;;8.52;;
24650;SDS011;12783;48.824;8.662;2023-01-20T07:56:31;13.98;;;7.65;;
24650;SDS011;12783;48.824;8.662;2023-01-20T07:58:58;11.48;;;6.07;;
24650;SDS011;12783;48.824;8.662;2023-01-20T08:01:26;11.88;;;5.53;;
24650;SDS011;12783;48.824;8.662;2023-01-20T08:03:54;12.10;;;6.47;;
24650;SDS011;12783;48.824;8.662;2023-01-20T08:06:23;13.23;;;5.75;;
24650;SDS011;12783;48.824;8.662;2023-01-20T08:08:51;13.02;;;5.63;;
24650;SDS011;12783;48.824;8.662;2023-01-20T08:11:19;11.52;;;5.13;;
24650;SDS011;12783;48.824;8.662;2023-01-20T08:13:47;11.98;;;4.85;;
24650;SDS011;12783;48.824;8.662;2023-01-20T08:16:15;9.68;;;4.97;;
24650;SDS011;12783;48.824;8.662;2023-01-20T08:18:42;11.02;;;5.68;;
24650;SDS011;12783;48.824;8.662;2023-01-20T08:21:19;12.82;;;5.70;;
24650;SDS011;12783;48.824;8.662;2023-01-20T08:23:47;9.45;;;4.93;;
24650;SDS011;12783;48.824;8.662;2023-01-20T08:26:14;10.35;;;5.53;;
24650;SDS011;12783;48.824;8.662;2023-01-20T08:28:41;8.43;;;5.25;;
24650;SDS011;12783;48.824;8.662;2023-01-20T08:31:16;14.00;;;5.28;;
24650;SDS011;12783;48.824;8.662;2023-01-20T08:33:45;8.77;;;4.70;;
24650;SDS011;12783;48.824;8.662;2023-01-20T08:36:13;10.32;;;5.55;;
24650;SDS011;12783;48.824;8.662;2023-01-20T08:38:42;10.40;;;5.35;;
24650;SDS011;12783;48.824;8.662;2023-01-20T08:41:10;9.63;;;4.80;;
24650;SDS011;12783;48.824;8.662;2023-01-20T08:43:42;8.57;;;4.68;;
24650;SDS011;12783;48.824;8.662;2023-01-20T08:46:10;6.80;;;4.50;;
24650;SDS011;12783;48.824;8.662;2023-01-20T08:48:39;8.00;;;4.45;;
24650;SDS011;12783;48.824;8.662;2023-01-20T08:51:08;9.38;;;4.95;;
24650;SDS011;12783;48.824;8.662;2023-01-20T08:53:37;9.15;;;4.60;;
24650;SDS011;12783;48.824;8.662;2023-01-20T08:56:04;5.82;;;3.83;;
24650;SDS011;12783;48.824;8.662;2023-01-20T08:58:31;12.05;;;4.00;;
24650;SDS011;12783;48.824;8.662;2023-01-20T09:00:58;7.90;;;4.68;;
24650;SDS011;12783;48.824;8.662;2023-01-20T09:03:25;10.00;;;4.53;;
24650;SDS011;12783;48.824;8.662;2023-01-20T09:05:52;12.38;;;4.65;;
24650;SDS011;12783;48.824;8.662;2023-01-20T09:08:19;10.15;;;5.15;;
24650;SDS011;12783;48.824;8.662;2023-01-20T09:10:45;9.70;;;5.57;;
24650;SDS011;12783;48.824;8.662;2023-01-20T09:13:12;11.18;;;5.47;;
24650;SDS011;12783;48.824;8.662;2023-01-20T09:15:39;9.05;;;5.53;;
24650;SDS011;12783;48.824;8.662;2023-01-20T09:18:06;9.18;;;5.43;;
24650;SDS011;12783;48.824;8.662;2023-01-20T09:20:32;6.50;;;4.38;;
24650;SDS011;12783;48.824;8.662;2023-01-20T09:23:00;8.20;;;4.57;;
24650;SDS011;12783;48.824;8.662;2023-01-20T09:25:28;8.35;;;4.25;;
24650;SDS011;12783;48.824;8.662;2023-01-20T09:27:55;13.48;;;3.83;;
24650;SDS011;12783;48.824;8.662;2023-01-20T09:30:25;10.02;;;4.65;;
24650;SDS011;12783;48.824;8.662;2023-01-20T09:32:52;13.80;;;5.22;;
24650;SDS011;12783;48.824;8.662;2023-01-20T09:35:21;11.93;;;5.15;;
24650;SDS011;12783;48.824;8.662;2023-01-20T09:37:48;16.40;;;5.78;;
24650;SDS011;12783;48.824;8.662;2023-01-20T09:40:34;19.15;;;7.22;;
24650;SDS011;12783;48.824;8.662;2023-01-20T09:43:53;19.60;;;6.00;;
24650;SDS011;12783;48.824;8.662;2023-01-20T09:46:30;22.20;;;6.35;;
24650;SDS011;12783;48.824;8.662;2023-01-20T09:49:16;15.50;;;4.93;;
24650;SDS011;12783;48.824;8.662;2023-01-20T09:52:12;9.05;;;3.20;;
24650;SDS011;12783;48.824;8.662;2023-01-20T09:55:11;3.47;;;2.15;;
24650;SDS011;12783;48.824;8.662;2023-01-20T09:57:41;3.72;;;1.92;;
24650;SDS011;12783;48.824;8.662;2023-01-20T10:00:14;5.03;;;2.60;;
24650;SDS011;12783;48.824;8.662;2023-01-20T10:02:45;5.38;;;3.70;;
24650;SDS011;12783;48.824;8.662;2023-01-20T10:05:19;8.25;;;3.10;;
24650;SDS011;12783;48.824;8.662;2023-01-20T10:07:51;4.78;;;2.50;;
24650;SDS011;12783;48.824;8.662;2023-01-20T10:10:33;4.63;;;3.22;;
24650;SDS011;12783;48.824;8.662;2023-01-20T10:15:54;3.70;;;2.50;;
24650;SDS011;12783;48.824;8.662;2023-01-20T10:21:16;4.95;;;2.63;;
24650;SDS011;12783;48.824;8.662;2023-01-20T10:23:49;6.68;;;4.20;;
24650;SDS011;12783;48.824;8.662;2023-01-20T10:26:20;5.82;;;2.35;;
24650;SDS011;12783;48.824;8.662;2023-01-20T10:28:59;4.38;;;2.30;;
24650;SDS011;12783;48.824;8.662;2023-01-20T10:31:28;5.25;;;2.42;;
24650;SDS011;12783;48.824;8.662;2023-01-20T10:33:59;7.00;;;2.60;;
24650;SDS011;12783;48.824;8.662;2023-01-20T10:36:34;9.93;;;2.67;;
24650;SDS011;12783;48.824;8.662;2023-01-20T10:39:01;9.27;;;5.10;;
24650;SDS011;12783;48.824;8.662;2023-01-20T10:41:35;8.30;;;3.45;;
24650;SDS011;12783;48.824;8.662;2023-01-20T10:44:24;15.13;;;7.22;;
24650;SDS011;12783;48.824;8.662;2023-01-20T10:49:43;11.43;;;6.60;;
24650;SDS011;12783;48.824;8.662;2023-01-20T10:52:31;11.95;;;5.38;;
24650;SDS011;12783;48.824;8.662;2023-01-20T10:55:17;8.38;;;4.75;;
24650;SDS011;12783;48.824;8.662;2023-01-20T10:58:31;7.63;;;4.13;;
24650;SDS011;12783;48.824;8.662;2023-01-20T11:01:02;11.30;;;6.32;;
24650;SDS011;12783;48.824;8.662;2023-01-20T11:03:33;11.07;;;5.90;;
24650;SDS011;12783;48.824;8.662;2023-01-20T11:06:02;7.60;;;4.28;;
24650;SDS011;12783;48.824;8.662;2023-01-20T11:08:29;9.93;;;5.60;;
24650;SDS011;12783;48.824;8.662;2023-01-20T11:11:00;8.20;;;4.20;;
24650;SDS011;12783;48.824;8.662;2023-01-20T11:13:38;6.30;;;3.75;;
24650;SDS011;12783;48.824;8.662;2023-01-20T11:16:10;9.30;;;3.83;;
24650;SDS011;12783;48.824;8.662;2023-01-20T11:18:42;8.68;;;4.32;;
24650;SDS011;12783;48.824;8.662;2023-01-20T11:21:24;9.63;;;3.55;;
24650;SDS011;12783;48.824;8.662;2023-01-20T11:23:54;7.90;;;4.22;;
24650;SDS011;12783;48.824;8.662;2023-01-20T11:26:28;7.32;;;4.05;;
24650;SDS011;12783;48.824;8.662;2023-01-20T11:39:36;8.88;;;4.07;;
24650;SDS011;12783;48.824;8.662;2023-01-20T11:42:29;7.53;;;4.10;;
24650;SDS011;12783;48.824;8.662;2023-01-20T11:45:00;7.10;;;3.75;;
24650;SDS011;12783;48.824;8.662;2023-01-20T11:47:57;8.38;;;4.07;;
24650;SDS011;12783;48.824;8.662;2023-01-20T11:50:26;8.38;;;3.78;;
24650;SDS011;12783;48.824;8.662;2023-01-20T11:58:15;4.45;;;3.00;;
24650;SDS011;12783;48.824;8.662;2023-01-20T12:00:47;8.10;;;3.20;;
24650;SDS011;12783;48.824;8.662;2023-01-20T12:03:25;5.10;;;2.72;;
24650;SDS011;12783;48.824;8.662;2023-01-20T12:08:46;7.80;;;3.63;;
24650;SDS011;12783;48.824;8.662;2023-01-20T12:11:16;5.82;;;3.13;;
24650;SDS011;12783;48.824;8.662;2023-01-20T12:14:04;6.45;;;3.50;;
24650;SDS011;12783;48.824;8.662;2023-01-20T12:19:25;6.63;;;3.05;;
24650;SDS011;12783;48.824;8.662;2023-01-20T12:22:00;7.10;;;3.00;;
24650;SDS011;12783;48.824;8.662;2023-01-20T12:24:30;6.40;;;2.75;;
24650;SDS011;12783;48.824;8.662;2023-01-20T12:27:28;6.40;;;2.63;;
24650;SDS011;12783;48.824;8.662;2023-01-20T12:29:57;8.65;;;3.08;;
24650;SDS011;12783;48.824;8.662;2023-01-20T12:32:26;14.30;;;5.60;;
24650;SDS011;12783;48.824;8.662;2023-01-20T12:34:54;4.85;;;2.50;;
24650;SDS011;12783;48.824;8.662;2023-01-20T12:42:44;5.97;;;3.28;;
24650;SDS011;12783;48.824;8.662;2023-01-20T12:46:01;8.23;;;2.85;;
24650;SDS011;12783;48.824;8.662;2023-01-20T12:48:19;7.10;;;2.58;;
24650;SDS011;12783;48.824;8.662;2023-01-20T12:51:16;6.18;;;3.10;;
24650;SDS011;12783;48.824;8.662;2023-01-20T12:54:09;5.78;;;3.03;;
24650;SDS011;12783;48.824;8.662;2023-01-20T12:57:24;6.05;;;2.97;;
24650;SDS011;12783;48.824;8.662;2023-01-20T13:00:25;6.15;;;3.13;;
24650;SDS011;12783;48.824;8.662;2023-01-20T13:05:45;8.13;;;2.83;;
24650;SDS011;12783;48.824;8.662;2023-01-20T13:08:20;9.25;;;3.35;;
24650;SDS011;12783;48.824;8.662;2023-01-20T13:10:50;9.98;;;3.20;;
24650;SDS011;12783;48.824;8.662;2023-01-20T13:13:43;5.50;;;3.13;;
24650;SDS011;12783;48.824;8.662;2023-01-20T13:21:37;4.18;;;2.60;;
24650;SDS011;12783;48.824;8.662;2023-01-20T13:24:06;8.57;;;3.28;;
24650;SDS011;12783;48.824;8.662;2023-01-20T13:26:44;5.70;;;3.00;;
24650;SDS011;12783;48.824;8.662;2023-01-20T13:29:22;6.40;;;3.35;;
24650;SDS011;12783;48.824;8.662;2023-01-20T13:32:02;9.48;;;3.08;;
24650;SDS011;12783;48.824;8.662;2023-01-20T13:34:30;8.68;;;3.80;;
24650;SDS011;12783;48.824;8.662;2023-01-20T13:41:55;5.90;;;2.90;;
24650;SDS011;12783;48.824;8.662;2023-01-20T13:46:58;5.63;;;2.80;;
24650;SDS011;12783;48.824;8.662;2023-01-20T13:49:26;4.75;;;3.03;;
24650;SDS011;12783;48.824;8.662;2023-01-20T13:51:54;5.20;;;2.65;;
24650;SDS011;12783;48.824;8.662;2023-01-20T13:56:48;5.43;;;2.65;;
24650;SDS011;12783;48.824;8.662;2023-01-20T13:59:14;4.25;;;2.10;;
24650;SDS011;12783;48.824;8.662;2023-01-20T14:01:41;7.18;;;2.90;;
24650;SDS011;12783;48.824;8.662;2023-01-20T14:04:15;5.88;;;3.42;;
24650;SDS011;12783;48.824;8.662;2023-01-20T14:06:44;5.13;;;3.00;;
24650;SDS011;12783;48.824;8.662;2023-01-20T14:09:18;8.40;;;3.65;;
24650;SDS011;12783;48.824;8.662;2023-01-20T14:11:50;7.47;;;3.97;;
24650;SDS011;12783;48.824;8.662;2023-01-20T14:14:22;5.05;;;3.40;;
24650;SDS011;12783;48.824;8.662;2023-01-20T14:16:50;7.00;;;3.80;;
24650;SDS011;12783;48.824;8.662;2023-01-20T14:22:01;5.10;;;2.80;;
24650;SDS011;12783;48.824;8.662;2023-01-20T14:24:48;5.25;;;2.75;;
24650;SDS011;12783;48.824;8.662;2023-01-20T14:29:57;3.07;;;1.90;;
24650;SDS011;12783;48.824;8.662;2023-01-20T14:32:44;6.03;;;3.67;;
24650;SDS011;12783;48.824;8.662;2023-01-20T14:35:21;5.15;;;2.05;;
24650;SDS011;12783;48.824;8.662;2023-01-20T14:37:53;5.65;;;2.50;;
24650;SDS011;12783;48.824;8.662;2023-01-20T14:40:25;3.60;;;2.30;;
24650;SDS011;12783;48.824;8.662;2023-01-20T14:42:57;5.28;;;2.90;;
24650;SDS011;12783;48.824;8.662;2023-01-20T14:45:25;5.65;;;2.90;;
24650;SDS011;12783;48.824;8.662;2023-01-20T14:47:55;4.60;;;3.28;;
24650;SDS011;12783;48.824;8.662;2023-01-20T14:50:22;5.45;;;2.78;;
24650;SDS011;12783;48.824;8.662;2023-01-20T14:52:49;5.60;;;2.90;;
24650;SDS011;12783;48.824;8.662;2023-01-20T14:55:29;4.47;;;2.83;;
24650;SDS011;12783;48.824;8.662;2023-01-20T14:58:07;4.57;;;2.90;;
24650;SDS011;12783;48.824;8.662;2023-01-20T15:00:43;7.03;;;2.80;;
24650;SDS011;12783;48.824;8.662;2023-01-20T15:03:21;7.93;;;3.40;;
24650;SDS011;12783;48.824;8.662;2023-01-20T15:08:42;5.10;;;3.15;;
24650;SDS011;12783;48.824;8.662;2023-01-20T15:11:25;5.75;;;3.30;;
24650;SDS011;12783;48.824;8.662;2023-01-20T15:21:44;5.20;;;3.35;;
24650;SDS011;12783;48.824;8.662;2023-01-20T15:24:14;9.77;;;3.20;;
24650;SDS011;12783;48.824;8.662;2023-01-20T15:26:42;5.70;;;3.20;;
24650;SDS011;12783;48.824;8.662;2023-01-20T15:29:26;6.43;;;3.65;;
24650;SDS011;12783;48.824;8.662;2023-01-20T15:31:55;4.80;;;2.80;;
24650;SDS011;12783;48.824;8.662;2023-01-20T15:34:24;4.43;;;2.70;;
24650;SDS011;12783;48.824;8.662;2023-01-20T15:36:52;4.15;;;2.67;;
24650;SDS011;12783;48.824;8.662;2023-01-20T15:39:21;4.75;;;2.80;;
24650;SDS011;12783;48.824;8.662;2023-01-20T15:41:55;3.80;;;2.67;;
24650;SDS011;12783;48.824;8.662;2023-01-20T15:44:23;6.82;;;2.80;;
24650;SDS011;12783;48.824;8.662;2023-01-20T15:46:50;3.80;;;2.70;;
24650;SDS011;12783;48.824;8.662;2023-01-20T15:49:19;2.80;;;2.03;;
24650;SDS011;12783;48.824;8.662;2023-01-20T15:51:46;2.30;;;1.92;;
24650;SDS011;12783;48.824;8.662;2023-01-20T15:54:13;7.72;;;2.28;;
24650;SDS011;12783;48.824;8.662;2023-01-20T15:56:40;3.53;;;2.00;;
24650;SDS011;12783;48.824;8.662;2023-01-20T15:59:11;5.30;;;2.22;;
24650;SDS011;12783;48.824;8.662;2023-01-20T16:01:42;3.90;;;2.20;;
24650;SDS011;12783;48.824;8.662;2023-01-20T16:04:15;3.22;;;2.05;;
24650;SDS011;12783;48.824;8.662;2023-01-20T16:06:41;5.68;;;2.40;;
24650;SDS011;12783;48.824;8.662;2023-01-20T16:09:16;2.88;;;1.90;;
24650;SDS011;12783;48.824;8.662;2023-01-20T16:11:48;3.20;;;2.10;;
24650;SDS011;12783;48.824;8.662;2023-01-20T16:14:14;6.03;;;2.30;;
24650;SDS011;12783;48.824;8.662;2023-01-20T16:16:41;4.13;;;2.20;;
24650;SDS011;12783;48.824;8.662;2023-01-20T16:19:13;5.32;;;2.58;;
24650;SDS011;12783;48.824;8.662;2023-01-20T16:21:40;3.42;;;2.35;;
24650;SDS011;12783;48.824;8.662;2023-01-20T16:24:10;4.90;;;2.70;;
24650;SDS011;12783;48.824;8.662;2023-01-20T16:26:37;3.78;;;2.10;;
24650;SDS011;12783;48.824;8.662;2023-01-20T16:29:04;3.67;;;2.20;;
24650;SDS011;12783;48.824;8.662;2023-01-20T16:31:30;3.40;;;2.40;;
24650;SDS011;12783;48.824;8.662;2023-01-20T16:33:58;3.42;;;2.40;;
24650;SDS011;12783;48.824;8.662;2023-01-20T16:36:25;8.85;;;4.13;;
24650;SDS011;12783;48.824;8.662;2023-01-20T16:38:52;6.82;;;3.08;;
24650;SDS011;12783;48.824;8.662;2023-01-20T16:41:20;4.78;;;3.15;;
24650;SDS011;12783;48.824;8.662;2023-01-20T16:43:48;4.47;;;2.65;;